createdAt,value
2023-02-14T00:02:24.345Z,28.63
2023-02-14T00:04:50.951Z,28.15
2023-02-14T00:07:17.522Z,26.92
2023-02-14T00:09:43.984Z,28.05
2023-02-14T00:12:10.725Z,26.65
2023-02-14T00:14:56.077Z,27.02
2023-02-14T00:17:22.529Z,27.40
2023-02-14T00:19:48.993Z,26.90
2023-02-14T00:22:15.425Z,26.25
2023-02-14T00:24:41.950Z,26.83
2023-02-14T01:13:22.572Z,27.27
2023-02-14T01:15:51.576Z,28.27
2023-02-14T01:20:53.234Z,27.08
2023-02-14T01:23:19.913Z,28.27
2023-02-14T01:41:50.992Z,27.52
2023-02-14T01:46:52.584Z,27.63
2023-02-14T01:49:25.630Z,28.30
2023-02-14T02:10:38.874Z,28.58
2023-02-14T02:13:08.063Z,27.27
2023-02-14T02:15:46.134Z,29.13
2023-02-14T02:18:48.082Z,27.63
2023-02-14T02:24:01.046Z,27.13
2023-02-14T02:27:04.122Z,26.50
2023-02-14T02:29:44.035Z,26.10
2023-02-14T02:32:48.020Z,28.08
2023-02-14T02:35:32.978Z,26.05
2023-02-14T02:38:57.842Z,28.10
2023-02-14T02:41:50.085Z,25.95
2023-02-14T02:44:50.784Z,26.98
2023-02-14T02:47:26.756Z,25.95
2023-02-14T02:50:11.865Z,27.92
2023-02-14T02:53:03.165Z,27.17
2023-02-14T02:56:01.927Z,28.00
2023-02-14T02:58:57.448Z,29.02
2023-02-14T03:01:29.717Z,27.15
2023-02-14T03:04:21.769Z,27.70
2023-02-14T03:06:48.803Z,26.98
2023-02-14T03:09:20.861Z,26.42
2023-02-14T03:11:57.092Z,27.55
2023-02-14T03:14:50.676Z,26.42
2023-02-14T03:18:05.217Z,25.38
2023-02-14T03:20:44.145Z,26.48
2023-02-14T03:23:22.125Z,29.60
2023-02-14T03:26:00.753Z,26.98
2023-02-14T03:28:51.687Z,27.42
2023-02-14T03:31:38.517Z,26.07
2023-02-14T03:34:16.033Z,27.30
2023-02-14T03:36:48.749Z,27.77
2023-02-14T03:39:23.333Z,26.88
2023-02-14T03:41:56.726Z,26.40
2023-02-14T03:44:28.475Z,24.48
2023-02-14T03:47:06.394Z,25.83
2023-02-14T03:49:37.212Z,25.63
2023-02-14T03:52:05.524Z,24.92
2023-02-14T03:54:34.867Z,26.20
2023-02-14T03:57:12.537Z,27.50
2023-02-14T03:59:39.803Z,26.27
2023-02-14T04:02:12.056Z,27.40
2023-02-14T04:04:43.798Z,28.20
2023-02-14T04:07:10.257Z,27.10
2023-02-14T04:09:36.701Z,27.77
2023-02-14T04:12:03.440Z,27.40
2023-02-14T04:14:30.312Z,26.17
2023-02-14T04:17:15.076Z,26.50
2023-02-14T04:19:41.546Z,26.73
2023-02-14T04:22:07.952Z,27.67
2023-02-14T04:24:34.393Z,26.33
2023-02-14T04:27:10.661Z,27.30
2023-02-14T04:30:03.970Z,27.08
2023-02-14T04:32:30.671Z,26.17
2023-02-14T04:34:57.150Z,27.13
2023-02-14T04:37:23.656Z,27.15
2023-02-14T04:39:50.372Z,27.30
2023-02-14T04:42:16.941Z,27.77
2023-02-14T04:44:43.430Z,27.00
2023-02-14T04:47:10.244Z,27.85
2023-02-14T04:49:36.721Z,27.60
2023-02-14T04:52:04.001Z,27.20
2023-02-14T04:54:30.638Z,25.88
2023-02-14T04:56:57.174Z,25.13
2023-02-14T04:59:24.974Z,25.52
2023-02-14T05:01:51.916Z,26.73
2023-02-14T05:04:18.472Z,26.55
2023-02-14T05:06:44.950Z,26.42
2023-02-14T05:09:11.589Z,26.55
2023-02-14T05:11:38.045Z,26.38
2023-02-14T05:14:04.840Z,26.48
2023-02-14T05:16:31.319Z,25.88
2023-02-14T05:18:57.774Z,24.45
2023-02-14T05:21:24.304Z,26.90
2023-02-14T05:23:50.761Z,26.38
2023-02-14T05:26:17.333Z,27.40
2023-02-14T05:28:43.884Z,27.33
2023-02-14T05:31:10.453Z,25.67
2023-02-14T05:33:37.070Z,26.30
2023-02-14T05:36:04.031Z,27.48
2023-02-14T05:38:31.175Z,26.25
2023-02-14T05:40:57.925Z,27.60
2023-02-14T05:43:24.666Z,25.20
2023-02-14T05:45:51.236Z,23.50
2023-02-14T05:48:17.880Z,25.20
2023-02-14T05:50:45.573Z,24.70
2023-02-14T05:53:13.077Z,26.63
2023-02-14T05:55:39.778Z,26.00
2023-02-14T05:58:07.127Z,29.15
2023-02-14T06:00:34.388Z,27.90
2023-02-14T06:03:01.193Z,28.38
2023-02-14T06:05:27.905Z,27.95
2023-02-14T06:07:54.504Z,25.70
2023-02-14T06:10:22.919Z,26.05
2023-02-14T06:12:50.800Z,27.17
2023-02-14T06:15:17.441Z,26.88
2023-02-14T06:17:43.888Z,29.23
2023-02-14T06:20:11.473Z,28.15
2023-02-14T06:22:39.038Z,28.30
2023-02-14T06:25:05.944Z,28.00
2023-02-14T06:27:32.709Z,25.45
2023-02-14T06:29:59.241Z,25.83
2023-02-14T06:32:25.781Z,26.20
2023-02-14T06:34:52.211Z,24.98
2023-02-14T06:37:20.033Z,27.48
2023-02-14T06:39:46.563Z,26.80
2023-02-14T06:42:13.106Z,26.95
2023-02-14T06:44:39.550Z,26.05
2023-02-14T06:47:06.052Z,25.80
2023-02-14T06:49:32.477Z,26.42
2023-02-14T07:28:10.042Z,29.60
2023-02-14T07:30:36.772Z,30.08
2023-02-14T07:33:03.369Z,29.98
2023-02-14T07:35:30.100Z,30.33
2023-02-14T07:37:56.627Z,27.25
2023-02-14T07:40:25.096Z,28.85
2023-02-14T07:42:55.865Z,27.65
2023-02-14T07:45:23.347Z,28.03
2023-02-14T07:47:51.596Z,28.65
2023-02-14T07:50:18.367Z,28.20
2023-02-14T07:52:45.188Z,28.17
2023-02-14T07:55:12.332Z,27.88
2023-02-14T07:57:38.970Z,25.95
2023-02-14T08:00:07.160Z,29.42
2023-02-14T08:02:33.836Z,27.15
2023-02-14T08:05:00.344Z,28.27
2023-02-14T08:07:26.900Z,30.67
2023-02-14T08:09:53.314Z,25.73
2023-02-14T08:12:38.407Z,24.75
2023-02-14T08:15:23.501Z,27.60
2023-02-14T08:17:50.200Z,26.83
2023-02-14T08:20:16.681Z,26.17
2023-02-14T08:22:43.111Z,26.58
2023-02-14T08:25:09.681Z,27.67
2023-02-14T08:27:36.234Z,29.10
2023-02-14T08:30:03.112Z,30.67
2023-02-14T08:32:29.821Z,26.33
2023-02-14T08:34:56.381Z,26.98
2023-02-14T08:37:22.852Z,28.52
2023-02-14T08:39:49.475Z,28.90
2023-02-14T08:42:15.940Z,27.92
2023-02-14T08:44:42.352Z,26.23
2023-02-14T08:47:08.822Z,29.58
2023-02-14T08:49:35.315Z,27.55
2023-02-14T08:52:01.709Z,25.95
2023-02-14T08:54:28.133Z,26.63
2023-02-14T08:56:54.626Z,25.40
2023-02-14T08:59:21.172Z,25.23
2023-02-14T09:01:47.759Z,27.00
2023-02-14T09:04:14.364Z,24.88
2023-02-14T09:06:40.834Z,25.98
2023-02-14T09:09:07.831Z,26.17
2023-02-14T09:11:34.870Z,25.55
2023-02-14T09:14:01.412Z,24.92
2023-02-14T09:16:27.951Z,22.65
2023-02-14T09:18:54.944Z,24.73
2023-02-14T09:21:25.696Z,26.27
2023-02-14T09:23:52.779Z,20.40
2023-02-14T09:26:20.001Z,27.15
2023-02-14T09:28:47.298Z,25.30
2023-02-14T09:31:22.527Z,28.30
2023-02-14T09:33:50.193Z,24.30
2023-02-14T09:36:16.972Z,24.42
2023-02-14T09:38:43.463Z,25.58
2023-02-14T09:41:30.617Z,24.75
2023-02-14T09:44:04.836Z,26.25
2023-02-14T09:46:40.262Z,27.58
2023-02-14T09:49:13.232Z,25.67
2023-02-14T09:51:44.886Z,25.80
2023-02-14T09:57:02.626Z,24.60
2023-02-14T09:59:53.649Z,25.48
2023-02-14T10:02:46.561Z,26.08
2023-02-14T10:05:26.532Z,26.92
2023-02-14T10:08:00.551Z,25.98
2023-02-14T10:10:39.750Z,26.60
2023-02-14T10:13:31.038Z,24.05
2023-02-14T10:16:04.599Z,24.23
2023-02-14T10:18:42.552Z,24.60
2023-02-14T10:21:18.194Z,24.98
2023-02-14T10:23:57.351Z,25.60
2023-02-14T10:26:35.288Z,24.08
2023-02-14T10:29:06.575Z,24.02
2023-02-14T10:31:55.682Z,24.85
2023-02-14T10:34:29.453Z,23.67
2023-02-14T10:37:21.870Z,24.35
2023-02-14T10:40:00.205Z,24.40
2023-02-14T10:42:53.819Z,24.40
2023-02-14T10:45:39.098Z,24.00
2023-02-14T10:48:16.581Z,23.85
2023-02-14T10:51:04.767Z,23.10
2023-02-14T10:53:42.308Z,25.27
2023-02-14T10:56:25.177Z,25.00
2023-02-14T10:58:56.597Z,24.50
2023-02-14T11:01:23.643Z,26.08
2023-02-14T11:04:04.055Z,27.10
2023-02-14T11:06:31.069Z,24.42
2023-02-14T11:08:58.307Z,23.88
2023-02-14T11:11:33.048Z,25.75
2023-02-14T11:13:59.478Z,24.60
2023-02-14T11:16:33.658Z,26.30
2023-02-14T11:19:14.487Z,25.65
2023-02-14T11:21:43.936Z,24.65
2023-02-14T11:24:26.430Z,24.42
2023-02-14T11:26:55.737Z,25.00
2023-02-14T11:29:28.962Z,26.92
2023-02-14T11:31:56.211Z,24.30
2023-02-14T11:34:36.534Z,25.52
2023-02-14T11:37:15.604Z,26.05
2023-02-14T11:39:42.097Z,25.52
2023-02-14T11:42:12.525Z,26.00
2023-02-14T11:44:54.806Z,24.90
2023-02-14T11:47:33.294Z,24.40
2023-02-14T11:50:10.911Z,25.00
2023-02-14T11:52:49.505Z,24.98
2023-02-14T11:55:28.831Z,26.35
2023-02-14T11:57:56.782Z,26.08
2023-02-14T12:00:26.967Z,27.73
2023-02-14T12:02:54.052Z,25.23
2023-02-14T12:05:28.069Z,24.15
2023-02-14T12:07:57.598Z,25.45
2023-02-14T12:10:24.088Z,27.10
2023-02-14T12:12:51.668Z,26.80
2023-02-14T12:15:27.159Z,26.23
2023-02-14T12:18:01.477Z,26.60
2023-02-14T12:21:22.492Z,25.02
2023-02-14T12:23:48.874Z,24.83
2023-02-14T12:26:32.161Z,24.95
2023-02-14T12:29:18.070Z,24.95
2023-02-14T12:31:47.518Z,26.75
2023-02-14T12:34:16.850Z,26.48
2023-02-14T12:37:02.082Z,25.00
2023-02-14T12:40:10.540Z,26.08
2023-02-14T12:42:39.636Z,24.90
2023-02-14T12:45:29.624Z,26.08
2023-02-14T12:48:25.163Z,25.77
2023-02-14T12:51:00.664Z,25.27
2023-02-14T12:53:49.180Z,26.15
2023-02-14T12:56:22.521Z,26.33
2023-02-14T12:59:05.954Z,25.48
2023-02-14T13:01:59.523Z,25.80
2023-02-14T13:04:28.961Z,26.35
2023-02-14T13:07:37.667Z,25.15
2023-02-14T13:10:14.534Z,26.20
2023-02-14T13:12:45.911Z,26.33
2023-02-14T13:15:34.338Z,26.10
2023-02-14T13:18:45.268Z,26.20
2023-02-14T13:21:17.662Z,27.38
2023-02-14T13:23:48.024Z,28.02
2023-02-14T13:26:19.275Z,25.92
2023-02-14T13:29:20.373Z,28.45
2023-02-14T13:31:48.195Z,27.20
2023-02-14T13:34:20.555Z,26.77
2023-02-14T13:36:48.149Z,27.05
2023-02-14T13:39:25.415Z,25.20
2023-02-14T13:41:51.834Z,27.15
2023-02-14T13:44:48.050Z,26.10
2023-02-14T13:47:20.369Z,26.25
2023-02-14T13:50:02.235Z,24.48
2023-02-14T13:52:47.123Z,24.33
2023-02-14T13:55:20.297Z,24.67
2023-02-14T13:57:59.533Z,25.23
2023-02-14T14:00:41.242Z,24.27
2023-02-14T14:05:47.783Z,25.55
2023-02-14T14:08:20.340Z,24.70
2023-02-14T14:10:48.729Z,24.67
2023-02-14T14:13:39.964Z,25.90
2023-02-14T14:16:28.029Z,24.77
2023-02-14T14:19:16.368Z,24.55
2023-02-14T14:21:47.276Z,25.05
2023-02-14T14:24:30.426Z,25.25
2023-02-14T14:27:01.169Z,24.80
2023-02-14T14:29:52.569Z,24.77
2023-02-14T14:32:29.513Z,24.02
2023-02-14T14:35:16.715Z,23.10
2023-02-14T14:37:50.936Z,23.77
2023-02-14T14:40:32.286Z,24.02
2023-02-14T14:43:24.325Z,24.40
2023-02-14T14:45:52.887Z,23.98
2023-02-14T14:48:30.148Z,25.35
2023-02-14T14:50:57.209Z,25.48
2023-02-14T14:53:26.475Z,25.23
2023-02-14T14:55:54.868Z,24.20
2023-02-14T14:58:48.058Z,23.83
2023-02-14T15:01:30.482Z,22.30
2023-02-14T15:04:12.570Z,24.00
2023-02-14T15:06:39.568Z,24.20
2023-02-14T15:09:13.606Z,24.95
2023-02-14T15:11:59.950Z,24.25
2023-02-14T15:14:28.912Z,23.55
2023-02-14T15:17:00.871Z,23.33
2023-02-14T15:19:44.180Z,22.98
2023-02-14T15:22:23.825Z,23.67
2023-02-14T15:24:52.030Z,24.88
2023-02-14T15:27:25.244Z,23.80
2023-02-14T15:30:00.945Z,24.23
2023-02-14T15:32:31.286Z,22.85
2023-02-14T15:34:59.120Z,23.33
2023-02-14T15:37:25.955Z,22.25
2023-02-14T15:39:58.142Z,21.67
2023-02-14T15:42:33.161Z,22.00
2023-02-14T15:45:27.562Z,23.42
2023-02-14T15:48:11.547Z,22.75
2023-02-14T15:50:47.070Z,22.88
2023-02-14T15:53:20.055Z,25.17
2023-02-14T15:55:51.045Z,23.55
2023-02-14T15:58:21.593Z,24.10
2023-02-14T16:00:49.886Z,23.88
2023-02-14T16:03:22.448Z,24.73
2023-02-14T16:05:50.591Z,23.00
2023-02-14T16:08:27.720Z,23.80
2023-02-14T16:11:14.594Z,25.67
2023-02-14T16:13:44.874Z,24.67
2023-02-14T16:16:13.431Z,26.73
2023-02-14T16:18:45.569Z,26.02
2023-02-14T16:21:32.405Z,25.05
2023-02-14T16:24:08.000Z,25.05
2023-02-14T16:26:37.917Z,25.27
2023-02-14T16:29:05.992Z,24.95
2023-02-14T16:31:33.713Z,25.15
2023-02-14T16:34:00.487Z,24.70
2023-02-14T16:36:30.070Z,26.20
2023-02-14T16:44:14.463Z,26.70
2023-02-14T16:46:43.155Z,26.20
2023-02-14T16:49:09.702Z,25.52
2023-02-14T16:51:37.489Z,25.25
2023-02-14T16:54:11.998Z,25.05
2023-02-14T16:56:54.750Z,25.95
2023-02-14T16:59:21.346Z,25.98
2023-02-14T17:01:48.744Z,25.88
2023-02-14T17:04:15.541Z,25.65
2023-02-14T17:06:47.161Z,25.63
2023-02-14T17:11:48.186Z,27.20
2023-02-14T17:14:19.460Z,26.23
2023-02-14T17:16:50.299Z,27.63
2023-02-14T17:19:17.828Z,26.95
2023-02-14T17:21:44.621Z,27.42
2023-02-14T17:24:11.162Z,27.05
2023-02-14T17:26:38.110Z,26.88
2023-02-14T17:34:20.945Z,27.75
2023-02-14T17:36:47.559Z,28.17
2023-02-14T17:39:14.871Z,26.90
2023-02-14T17:41:41.439Z,27.00
2023-02-14T17:44:08.424Z,28.65
2023-02-14T17:46:35.052Z,28.13
2023-02-14T17:49:02.652Z,29.95
2023-02-14T17:51:29.759Z,28.10
2023-02-14T17:53:58.886Z,27.73
2023-02-14T17:56:26.573Z,29.35
2023-02-14T17:58:55.008Z,28.80
2023-02-14T18:01:26.478Z,28.73
2023-02-14T18:06:21.427Z,29.65
2023-02-14T18:08:50.428Z,29.83
2023-02-14T18:11:18.466Z,29.27
2023-02-14T18:13:44.934Z,28.77
2023-02-14T18:16:13.860Z,28.45
2023-02-14T18:18:40.806Z,30.27
2023-02-14T18:21:09.778Z,29.40
2023-02-14T18:23:37.386Z,29.73
2023-02-14T18:26:06.885Z,28.88
2023-02-14T18:28:34.573Z,29.23
2023-02-14T18:31:10.196Z,28.67
2023-02-14T18:33:37.180Z,27.45
2023-02-14T18:36:12.783Z,30.20
2023-02-14T18:38:40.668Z,30.58
2023-02-14T18:41:09.472Z,29.30
2023-02-14T18:43:36.683Z,28.63
2023-02-14T18:46:09.021Z,31.63
2023-02-14T18:48:36.322Z,29.77
2023-02-14T18:51:10.136Z,27.77
2023-02-14T18:53:37.658Z,26.63
2023-02-14T18:56:09.604Z,28.58
2023-02-14T18:58:36.508Z,27.92
2023-02-14T19:01:10.088Z,26.45
2023-02-14T19:03:37.058Z,27.60
2023-02-14T19:06:04.124Z,26.85
2023-02-14T19:08:35.214Z,25.80
2023-02-14T19:11:02.578Z,28.08
2023-02-14T19:13:29.618Z,26.63
2023-02-14T19:15:56.437Z,27.27
2023-02-14T19:18:25.577Z,27.50
2023-02-14T19:20:52.203Z,27.10
2023-02-14T19:23:19.830Z,27.02
2023-02-14T19:44:33.293Z,34.75
2023-02-14T19:47:01.887Z,34.22
2023-02-14T19:49:31.214Z,33.93
2023-02-14T19:51:58.816Z,32.92
2023-02-14T19:54:25.645Z,33.90
2023-02-14T19:56:53.789Z,30.35
2023-02-14T19:59:21.726Z,30.35
2023-02-14T20:01:55.268Z,30.50
2023-02-14T20:04:27.617Z,31.73
2023-02-14T20:06:54.978Z,31.02
2023-02-14T20:09:22.446Z,32.00
2023-02-14T20:11:51.669Z,31.30
2023-02-14T20:14:24.115Z,30.60
2023-02-14T20:16:51.983Z,31.42
2023-02-14T20:19:20.590Z,31.45
2023-02-14T20:21:49.877Z,32.22
2023-02-14T20:24:22.102Z,31.38
2023-02-14T20:26:49.457Z,32.13
2023-02-14T20:29:17.566Z,33.58
2023-02-14T20:31:49.313Z,34.38
2023-02-14T20:34:16.757Z,34.28
2023-02-14T20:36:44.321Z,34.78
2023-02-14T20:39:13.002Z,34.38
2023-02-14T20:41:39.420Z,34.22
2023-02-14T20:44:08.536Z,35.60
2023-02-14T20:46:35.901Z,36.58
2023-02-14T20:49:05.348Z,39.13
2023-02-14T20:51:31.938Z,36.03
2023-02-14T20:53:58.418Z,37.13
2023-02-14T20:56:24.961Z,35.03
2023-02-14T20:58:51.700Z,37.45
2023-02-14T21:01:27.807Z,35.10
2023-02-14T21:03:54.483Z,35.28
2023-02-14T21:06:23.581Z,36.00
2023-02-14T21:08:50.352Z,34.13
2023-02-14T21:11:18.480Z,34.55
2023-02-14T21:13:44.941Z,35.45
2023-02-14T21:16:15.443Z,35.58
2023-02-14T21:18:44.347Z,36.75
2023-02-14T21:21:18.004Z,35.88
2023-02-14T21:23:44.530Z,36.63
2023-02-14T21:26:11.116Z,34.47
2023-02-14T21:28:37.557Z,33.85
2023-02-14T21:31:09.344Z,33.50
2023-02-14T21:33:36.766Z,33.72
2023-02-14T21:36:11.498Z,34.10
2023-02-14T21:38:38.110Z,32.60
2023-02-14T21:41:06.989Z,30.13
2023-02-14T21:43:35.367Z,29.90
2023-02-14T21:46:07.450Z,29.67
2023-02-14T21:48:52.670Z,29.92
2023-02-14T21:51:19.986Z,29.98
2023-02-14T21:53:47.120Z,30.80
2023-02-14T21:56:18.037Z,30.73
2023-02-14T21:58:44.608Z,30.35
2023-02-14T22:01:21.672Z,29.38
2023-02-14T22:03:48.707Z,29.33
2023-02-14T22:06:15.518Z,29.58
2023-02-14T22:08:42.720Z,27.90
2023-02-14T22:11:12.482Z,28.52
2023-02-14T22:13:39.500Z,28.88
2023-02-14T22:16:08.988Z,26.85
2023-02-14T22:18:35.768Z,28.40
2023-02-14T22:21:04.864Z,29.42
2023-02-14T22:26:13.185Z,27.02
2023-02-14T22:28:41.116Z,26.85
2023-02-14T22:31:08.585Z,27.88
2023-02-14T22:33:37.501Z,28.38
2023-02-14T22:36:05.038Z,28.58
2023-02-14T22:38:31.592Z,27.77
2023-02-14T22:41:11.186Z,28.27
2023-02-14T22:43:38.764Z,29.20
2023-02-14T22:46:08.059Z,27.35
2023-02-14T22:48:36.353Z,28.77
2023-02-14T22:51:20.833Z,28.42
2023-02-14T22:53:47.927Z,29.02
2023-02-14T22:56:34.882Z,29.27
2023-02-14T22:59:07.010Z,27.77
2023-02-14T23:01:35.459Z,29.10
2023-02-14T23:04:03.507Z,28.33
2023-02-14T23:06:32.413Z,30.08
2023-02-14T23:08:59.564Z,31.15
2023-02-14T23:11:28.985Z,29.90
2023-02-14T23:14:34.811Z,31.13
2023-02-14T23:17:20.239Z,29.77
2023-02-14T23:20:05.790Z,29.23
2023-02-14T23:22:35.076Z,30.15
2023-02-14T23:25:06.983Z,33.17
2023-02-14T23:27:37.053Z,30.83
2023-02-14T23:30:08.673Z,30.40
2023-02-14T23:32:35.201Z,28.60
2023-02-14T23:35:01.673Z,28.90
2023-02-14T23:37:28.173Z,30.33
2023-02-14T23:39:54.647Z,29.58
2023-02-14T23:42:21.125Z,29.27
2023-02-14T23:47:51.286Z,30.48
2023-02-14T23:50:17.957Z,31.25
2023-02-14T23:52:44.597Z,30.90
2023-02-14T23:55:11.532Z,30.67
2023-02-14T23:57:38.132Z,31.52
